Time;durP1;ratioP1;P1;durP2;ratioP2;P2;SDS_P1;SDS_P2;PMS_P1;PMS_P2;Temp;Humidity;BMP_temperature;BMP_pressure;BME280_temperature;BME280_humidity;BME280_pressure;Samples;Min_cycle;Max_cycle;Signal;HPM_P1;HPM_P2
2023/10/05 00:01:24;;;;;;;1999.90;999.90;;;;;;;;;;6214788;23;20020;-87
2023/10/05 00:03:51;;;;;;;1999.90;999.90;;;;;;;;;;6214337;23;20031;-87
2023/10/05 00:06:23;;;;;;;1999.90;999.90;;;;;;;;;;6214488;23;20026;-87
2023/10/05 00:08:52;;;;;;;1999.90;999.90;;;;;;;;;;6214535;23;20036;-88
2023/10/05 00:11:23;;;;;;;1999.90;999.90;;;;;;;;;;6214519;23;20039;-89
2023/10/05 00:13:52;;;;;;;1999.90;999.90;;;;;;;;;;6214087;23;20099;-88
2023/10/05 00:16:21;;;;;;;1999.90;999.90;;;;;;;;;;6213970;23;20448;-88
2023/10/05 00:18:49;;;;;;;1999.90;999.90;;;;;;;;;;6213368;23;20020;-86
2023/10/05 00:21:18;;;;;;;1999.90;999.90;;;;;;;;;;6213217;23;20078;-87
2023/10/05 00:23:48;;;;;;;1999.90;999.90;;;;;;;;;;6213322;23;20102;-88
2023/10/05 00:26:15;;;;;;;1999.90;999.90;;;;;;;;;;6213163;23;20025;-87
2023/10/05 00:28:47;;;;;;;1999.90;999.90;;;;;;;;;;6212834;23;20027;-86
2023/10/05 00:31:15;;;;;;;1999.90;999.90;;;;;;;;;;6212822;23;20055;-87
2023/10/05 00:33:43;;;;;;;1999.90;999.90;;;;;;;;;;6212513;23;20016;-87
2023/10/05 00:36:13;;;;;;;1999.90;999.90;;;;;;;;;;6212449;23;20024;-87
2023/10/05 00:38:39;;;;;;;1999.90;999.90;;;;;;;;;;6212018;23;20028;-86
2023/10/05 00:41:08;;;;;;;1999.90;999.90;;;;;;;;;;6211872;23;20013;-89
2023/10/05 00:43:35;;;;;;;1999.90;999.90;;;;;;;;;;6211590;23;20020;-86
2023/10/05 00:46:03;;;;;;;1999.90;999.90;;;;;;;;;;6211609;23;20021;-87
2023/10/05 00:48:34;;;;;;;1999.90;999.90;;;;;;;;;;6211628;23;20024;-90
2023/10/05 00:51:12;;;;;;;1999.90;999.90;;;;;;;;;;6211218;23;20035;-87
2023/10/05 00:53:39;;;;;;;1999.90;999.90;;;;;;;;;;6211120;23;20021;-86
2023/10/05 00:56:11;;;;;;;1999.90;999.90;;;;;;;;;;6211372;23;20451;-88
2023/10/05 00:58:42;;;;;;;1999.90;999.90;;;;;;;;;;6211495;23;20028;-87
2023/10/05 01:01:15;;;;;;;1999.90;999.90;;;;;;;;;;6211988;23;20045;-89
2023/10/05 01:04:11;;;;;;;1999.90;999.90;;;;;;;;;;6208813;23;20139;-87
2023/10/05 01:06:41;;;;;;;1999.90;999.90;;;;;;;;;;6210619;23;20036;-88
2023/10/05 01:09:12;;;;;;;1999.90;999.90;;;;;;;;;;6211039;23;20099;-88
2023/10/05 01:11:42;;;;;;;1999.90;999.90;;;;;;;;;;6210856;23;20469;-87
2023/10/05 01:14:09;;;;;;;1999.90;999.90;;;;;;;;;;6210855;23;20028;-87
2023/10/05 01:16:36;;;;;;;1999.90;999.90;;;;;;;;;;6211162;23;20029;-88
2023/10/05 01:19:07;;;;;;;1999.90;999.90;;;;;;;;;;6210935;23;20017;-87
2023/10/05 01:21:35;;;;;;;1999.90;999.90;;;;;;;;;;6210835;23;20024;-90
2023/10/05 01:24:04;;;;;;;1999.90;999.90;;;;;;;;;;6210976;23;20056;-87
2023/10/05 01:26:31;;;;;;;1999.90;999.90;;;;;;;;;;6211281;23;20016;-87
2023/10/05 01:28:58;;;;;;;1999.90;999.90;;;;;;;;;;6210835;23;20480;-87
2023/10/05 01:31:25;;;;;;;1999.90;999.90;;;;;;;;;;6210549;23;20029;-87
2023/10/05 01:33:52;;;;;;;1999.90;999.90;;;;;;;;;;6210117;23;20486;-88
2023/10/05 01:36:19;;;;;;;1999.90;999.90;;;;;;;;;;6210359;23;20551;-88
2023/10/05 01:38:46;;;;;;;1999.90;999.90;;;;;;;;;;6210490;23;20867;-87
2023/10/05 01:41:20;;;;;;;1999.90;999.90;;;;;;;;;;6210447;23;20553;-88
2023/10/05 01:43:48;;;;;;;1999.90;999.90;;;;;;;;;;6210921;23;20017;-89
2023/10/05 01:46:15;;;;;;;1999.90;999.90;;;;;;;;;;6210346;23;20048;-86
2023/10/05 01:48:42;;;;;;;1999.90;999.90;;;;;;;;;;6210449;23;20025;-88
2023/10/05 01:51:10;;;;;;;1999.90;999.90;;;;;;;;;;6210640;23;20020;-86
2023/10/05 01:53:39;;;;;;;1999.90;999.90;;;;;;;;;;6210523;23;20095;-88
2023/10/05 01:56:13;;;;;;;1999.90;999.90;;;;;;;;;;6211013;23;20312;-87
2023/10/05 01:58:43;;;;;;;1999.90;999.90;;;;;;;;;;6210956;23;20439;-87
2023/10/05 02:01:10;;;;;;;1999.90;999.90;;;;;;;;;;6210608;23;20025;-87
2023/10/05 02:03:38;;;;;;;1999.90;999.90;;;;;;;;;;6210596;23;20104;-88
2023/10/05 02:06:11;;;;;;;1999.90;999.90;;;;;;;;;;6210424;23;20020;-87
2023/10/05 02:08:37;;;;;;;1999.90;999.90;;;;;;;;;;6210480;23;20020;-87
2023/10/05 02:11:06;;;;;;;1999.90;999.90;;;;;;;;;;6210443;23;20100;-87
2023/10/05 02:13:33;;;;;;;1999.90;999.90;;;;;;;;;;6210296;23;20367;-88
2023/10/05 02:16:01;;;;;;;1999.90;999.90;;;;;;;;;;6210407;23;20020;-86
2023/10/05 02:18:30;;;;;;;1999.90;999.90;;;;;;;;;;6210006;23;20048;-87
2023/10/05 02:21:05;;;;;;;1999.90;999.90;;;;;;;;;;6210629;23;20415;-86
2023/10/05 02:23:37;;;;;;;1999.90;999.90;;;;;;;;;;6211289;23;20021;-86
2023/10/05 02:26:09;;;;;;;1999.90;999.90;;;;;;;;;;6210556;23;20024;-86
2023/10/05 02:28:39;;;;;;;1999.90;999.90;;;;;;;;;;6210094;23;20021;-85
2023/10/05 02:31:12;;;;;;;1999.90;999.90;;;;;;;;;;6210444;23;20095;-86
2023/10/05 02:33:40;;;;;;;1999.90;999.90;;;;;;;;;;6210220;23;20083;-87
2023/10/05 02:36:11;;;;;;;1999.90;999.90;;;;;;;;;;6210289;23;20509;-85
2023/10/05 02:38:49;;;;;;;1999.90;999.90;;;;;;;;;;6210363;23;20032;-87
2023/10/05 02:41:23;;;;;;;1999.90;999.90;;;;;;;;;;6210234;23;20024;-88
2023/10/05 02:43:53;;;;;;;1999.90;999.90;;;;;;;;;;6211118;23;20024;-86
2023/10/05 02:46:24;;;;;;;1999.90;999.90;;;;;;;;;;6211576;23;20021;-90
2023/10/05 02:48:50;;;;;;;1999.90;999.90;;;;;;;;;;6211751;23;20025;-86
2023/10/05 02:51:18;;;;;;;1999.90;999.90;;;;;;;;;;6211427;23;20459;-86
2023/10/05 02:53:46;;;;;;;1999.90;999.90;;;;;;;;;;6211971;23;20020;-86
2023/10/05 02:56:22;;;;;;;1999.90;999.90;;;;;;;;;;6211884;23;20027;-85
2023/10/05 02:58:52;;;;;;;1999.90;999.90;;;;;;;;;;6211607;23;20025;-88
2023/10/05 03:01:19;;;;;;;1999.90;999.90;;;;;;;;;;6211609;23;20020;-85
2023/10/05 03:03:47;;;;;;;1999.90;999.90;;;;;;;;;;6211277;23;20024;-89
2023/10/05 03:06:15;;;;;;;1999.90;999.90;;;;;;;;;;6211966;23;20020;-88
2023/10/05 03:08:42;;;;;;;1999.90;999.90;;;;;;;;;;6212148;23;20386;-85
2023/10/05 03:11:09;;;;;;;1999.90;999.90;;;;;;;;;;6211724;23;20024;-88
2023/10/05 03:13:38;;;;;;;1999.90;999.90;;;;;;;;;;6211835;23;20045;-85
2023/10/05 03:16:09;;;;;;;1999.90;999.90;;;;;;;;;;6211544;23;20490;-87
2023/10/05 03:18:37;;;;;;;1999.90;999.90;;;;;;;;;;6211806;23;20079;-86
2023/10/05 03:21:12;;;;;;;1999.90;999.90;;;;;;;;;;6211623;23;20020;-85
2023/10/05 03:23:40;;;;;;;1999.90;999.90;;;;;;;;;;6211784;23;20131;-88
2023/10/05 03:26:08;;;;;;;1999.90;999.90;;;;;;;;;;6212128;23;20055;-87
2023/10/05 03:28:35;;;;;;;1999.90;999.90;;;;;;;;;;6211872;23;20047;-86
2023/10/05 03:31:06;;;;;;;1999.90;999.90;;;;;;;;;;6211693;23;20021;-87
2023/10/05 03:33:34;;;;;;;1999.90;999.90;;;;;;;;;;6212226;23;20079;-87
2023/10/05 03:36:06;;;;;;;1999.90;999.90;;;;;;;;;;6211314;23;20020;-87
2023/10/05 03:38:34;;;;;;;1999.90;999.90;;;;;;;;;;6211410;23;20395;-87
2023/10/05 03:41:04;;;;;;;1999.90;999.90;;;;;;;;;;6211443;23;20395;-87
2023/10/05 03:43:32;;;;;;;1999.90;999.90;;;;;;;;;;6211381;23;20402;-86
2023/10/05 03:46:06;;;;;;;1999.90;999.90;;;;;;;;;;6210879;23;20028;-86
2023/10/05 03:48:38;;;;;;;1999.90;999.90;;;;;;;;;;6211403;23;20028;-86
2023/10/05 03:51:09;;;;;;;1999.90;999.90;;;;;;;;;;6211966;23;20099;-88
2023/10/05 03:53:37;;;;;;;1999.90;999.90;;;;;;;;;;6211456;23;20096;-86
2023/10/05 03:56:05;;;;;;;1999.90;999.90;;;;;;;;;;6211608;23;20021;-86
2023/10/05 03:58:34;;;;;;;1999.90;999.90;;;;;;;;;;6210831;23;20347;-85
2023/10/05 04:01:00;;;;;;;1999.90;999.90;;;;;;;;;;6211650;23;20029;-87
2023/10/05 04:03:27;;;;;;;1999.90;999.90;;;;;;;;;;6210649;23;20017;-87
2023/10/05 04:05:54;;;;;;;1999.90;999.90;;;;;;;;;;6210694;23;20387;-86
2023/10/05 04:08:23;;;;;;;1999.90;999.90;;;;;;;;;;6211085;23;20518;-85
2023/10/05 04:10:51;;;;;;;1999.90;999.90;;;;;;;;;;6211711;23;20028;-87
2023/10/05 04:13:20;;;;;;;1999.90;999.90;;;;;;;;;;6211296;23;20029;-88
2023/10/05 04:15:47;;;;;;;1999.90;999.90;;;;;;;;;;6211727;23;20108;-85
2023/10/05 04:18:15;;;;;;;1999.90;999.90;;;;;;;;;;6211537;23;20023;-85
2023/10/05 04:20:43;;;;;;;1999.90;999.90;;;;;;;;;;6211382;23;20028;-88
2023/10/05 04:23:09;;;;;;;1999.90;999.90;;;;;;;;;;6211298;23;20379;-86
2023/10/05 04:25:36;;;;;;;1999.90;999.90;;;;;;;;;;6211291;23;20095;-86
2023/10/05 04:28:04;;;;;;;1999.90;999.90;;;;;;;;;;6210883;23;20025;-85
2023/10/05 04:30:33;;;;;;;1999.90;999.90;;;;;;;;;;6210922;23;20121;-86
2023/10/05 04:33:01;;;;;;;1999.90;999.90;;;;;;;;;;6211236;23;20078;-87
2023/10/05 04:35:32;;;;;;;1999.90;999.90;;;;;;;;;;6211027;23;20471;-86
2023/10/05 04:38:00;;;;;;;1999.90;999.90;;;;;;;;;;6211206;23;20108;-85
2023/10/05 04:40:27;;;;;;;1999.90;999.90;;;;;;;;;;6211101;23;20028;-86
2023/10/05 04:42:58;;;;;;;1999.90;999.90;;;;;;;;;;6210497;23;20402;-86
2023/10/05 04:45:27;;;;;;;1999.90;999.90;;;;;;;;;;6210890;23;20095;-88
2023/10/05 04:47:58;;;;;;;1999.90;999.90;;;;;;;;;;6210907;23;20339;-88
2023/10/05 04:50:26;;;;;;;1999.90;999.90;;;;;;;;;;6210143;23;20021;-88
2023/10/05 04:52:53;;;;;;;1999.90;999.90;;;;;;;;;;6210743;23;20024;-87
2023/10/05 04:55:23;;;;;;;1999.90;999.90;;;;;;;;;;6210407;23;20021;-85
2023/10/05 04:57:55;;;;;;;1999.90;999.90;;;;;;;;;;6210486;23;20020;-87
2023/10/05 05:03:33;;;;;;;1999.90;999.90;;;;;;;;;;6209503;23;20035;-88
2023/10/05 05:06:10;;;;;;;1999.90;999.90;;;;;;;;;;6209813;23;20024;-87
2023/10/05 05:08:38;;;;;;;1999.90;999.90;;;;;;;;;;6210670;23;20075;-86
2023/10/05 05:11:08;;;;;;;1999.90;999.90;;;;;;;;;;6210854;23;20013;-87
2023/10/05 05:13:36;;;;;;;1999.90;999.90;;;;;;;;;;6210931;23;20082;-89
2023/10/05 05:16:05;;;;;;;1999.90;999.90;;;;;;;;;;6210279;23;20035;-85
2023/10/05 05:18:37;;;;;;;1999.90;999.90;;;;;;;;;;6210580;23;20020;-86
2023/10/05 05:21:07;;;;;;;1999.90;999.90;;;;;;;;;;6210232;23;20020;-86
2023/10/05 05:23:34;;;;;;;1999.90;999.90;;;;;;;;;;6210337;23;20016;-87
2023/10/05 05:26:00;;;;;;;1999.90;999.90;;;;;;;;;;6210696;23;20024;-89
2023/10/05 05:28:27;;;;;;;1999.90;999.90;;;;;;;;;;6209729;23;20366;-87
2023/10/05 05:30:54;;;;;;;1999.90;999.90;;;;;;;;;;6210457;23;20020;-90
2023/10/05 05:33:20;;;;;;;1999.90;999.90;;;;;;;;;;6209977;23;20459;-87
2023/10/05 05:35:49;;;;;;;1999.90;999.90;;;;;;;;;;6209858;23;20399;-86
2023/10/05 05:38:18;;;;;;;1999.90;999.90;;;;;;;;;;6209963;23;20063;-88
2023/10/05 05:40:44;;;;;;;1999.90;999.90;;;;;;;;;;6210191;23;20088;-87
2023/10/05 05:43:16;;;;;;;1999.90;999.90;;;;;;;;;;6209884;23;20020;-86
2023/10/05 05:45:45;;;;;;;1999.90;999.90;;;;;;;;;;6210320;23;20047;-85
2023/10/05 05:48:14;;;;;;;1999.90;999.90;;;;;;;;;;6210933;23;20104;-86
2023/10/05 05:50:42;;;;;;;1999.90;999.90;;;;;;;;;;6210825;23;20415;-87
2023/10/05 05:53:12;;;;;;;1999.90;999.90;;;;;;;;;;6210676;23;20436;-87
2023/10/05 05:55:41;;;;;;;1999.90;999.90;;;;;;;;;;6210448;23;20032;-88
2023/10/05 05:58:08;;;;;;;1999.90;999.90;;;;;;;;;;6210307;23;20025;-87
2023/10/05 06:00:34;;;;;;;1999.90;999.90;;;;;;;;;;6210798;23;20357;-89
2023/10/05 06:03:01;;;;;;;1999.90;999.90;;;;;;;;;;6210474;23;20075;-89
2023/10/05 06:05:27;;;;;;;1999.90;999.90;;;;;;;;;;6211023;23;20017;-90
2023/10/05 06:07:55;;;;;;;1999.90;999.90;;;;;;;;;;6211324;23;20024;-88
2023/10/05 06:10:28;;;;;;;1999.90;999.90;;;;;;;;;;6211356;23;20103;-89
2023/10/05 06:12:54;;;;;;;1999.90;999.90;;;;;;;;;;6213395;23;20348;-90
2023/10/05 06:15:21;;;;;;;1999.90;999.90;;;;;;;;;;6215379;23;20012;-89
2023/10/05 06:17:47;;;;;;;1999.90;999.90;;;;;;;;;;6212660;23;20028;-89
2023/10/05 06:20:14;;;;;;;1999.90;999.90;;;;;;;;;;6213012;23;20024;-90
2023/10/05 06:22:42;;;;;;;1999.90;999.90;;;;;;;;;;6215461;23;20028;-88
2023/10/05 06:25:10;;;;;;;1999.90;999.90;;;;;;;;;;6213126;23;20024;-88
2023/10/05 06:27:38;;;;;;;1999.90;999.90;;;;;;;;;;6213413;23;20031;-88
2023/10/05 06:30:07;;;;;;;1999.90;999.90;;;;;;;;;;6212849;23;20020;-88
2023/10/05 06:32:34;;;;;;;1999.90;999.90;;;;;;;;;;6213376;23;20021;-90
2023/10/05 06:35:00;;;;;;;1999.90;999.90;;;;;;;;;;6218297;23;20025;-89
2023/10/05 06:37:27;;;;;;;1999.90;999.90;;;;;;;;;;6217560;23;20025;-89
2023/10/05 06:39:53;;;;;;;1999.90;999.90;;;;;;;;;;6214061;23;20016;-88
2023/10/05 06:42:20;;;;;;;1999.90;999.90;;;;;;;;;;6212961;23;20024;-88
2023/10/05 06:44:50;;;;;;;1999.90;999.90;;;;;;;;;;6213045;23;20020;-88
2023/10/05 06:47:35;;;;;;;1999.90;999.90;;;;;;;;;;6212808;23;20124;-90
2023/10/05 06:50:03;;;;;;;1999.90;999.90;;;;;;;;;;6212954;23;20028;-87
2023/10/05 06:52:30;;;;;;;1999.90;999.90;;;;;;;;;;6212701;23;20032;-89
2023/10/05 06:54:56;;;;;;;1999.90;999.90;;;;;;;;;;6222952;23;20035;-90
2023/10/05 06:57:22;;;;;;;1999.90;999.90;;;;;;;;;;6235884;23;20035;-90
2023/10/05 06:59:55;;;;;;;1999.90;999.90;;;;;;;;;;6242027;23;20008;-92
2023/10/05 07:02:26;;;;;;;1999.90;999.90;;;;;;;;;;6240682;23;20044;-91
2023/10/05 07:04:53;;;;;;;1999.90;999.90;;;;;;;;;;6240203;23;20020;-91
2023/10/05 07:07:20;;;;;;;1999.90;999.90;;;;;;;;;;6240434;23;20020;-89
2023/10/05 07:09:46;;;;;;;1999.90;999.90;;;;;;;;;;6219612;23;20072;-91
2023/10/05 07:12:13;;;;;;;1999.90;999.90;;;;;;;;;;6227619;23;20058;-89
2023/10/05 07:14:40;;;;;;;1999.90;999.90;;;;;;;;;;6225861;23;20465;-89
2023/10/05 07:17:10;;;;;;;1999.90;999.90;;;;;;;;;;6240642;23;20033;-91
2023/10/05 07:19:37;;;;;;;1999.90;999.90;;;;;;;;;;6235372;23;20069;-88
2023/10/05 07:22:04;;;;;;;1999.90;999.90;;;;;;;;;;6228857;23;20051;-88
2023/10/05 07:24:30;;;;;;;1999.90;999.90;;;;;;;;;;6230260;23;20024;-88
2023/10/05 07:26:58;;;;;;;1999.90;999.90;;;;;;;;;;6219932;23;20018;-90
2023/10/05 07:29:24;;;;;;;1999.90;999.90;;;;;;;;;;6219900;23;20511;-89
2023/10/05 07:31:51;;;;;;;1999.90;999.90;;;;;;;;;;6218723;23;20025;-89
2023/10/05 07:34:20;;;;;;;1999.90;999.90;;;;;;;;;;6219971;23;20016;-90
2023/10/05 07:36:46;;;;;;;1999.90;999.90;;;;;;;;;;6220015;23;20047;-90
2023/10/05 07:39:14;;;;;;;1999.90;999.90;;;;;;;;;;6228822;23;20042;-92
2023/10/05 07:41:44;;;;;;;1999.90;999.90;;;;;;;;;;6239854;23;20024;-91
2023/10/05 07:44:10;;;;;;;1999.90;999.90;;;;;;;;;;6232147;23;20503;-91
2023/10/05 07:46:38;;;;;;;1999.90;999.90;;;;;;;;;;6231288;23;20025;-90
2023/10/05 07:49:05;;;;;;;1999.90;999.90;;;;;;;;;;6238382;23;20036;-91
2023/10/05 07:51:34;;;;;;;1999.90;999.90;;;;;;;;;;6241355;23;20035;-91
2023/10/05 07:54:01;;;;;;;1999.90;999.90;;;;;;;;;;6243307;23;20024;-94
2023/10/05 07:56:32;;;;;;;1999.90;999.90;;;;;;;;;;6244362;23;20008;-91
2023/10/05 07:58:59;;;;;;;1999.90;999.90;;;;;;;;;;6237927;23;20479;-89
2023/10/05 08:01:26;;;;;;;1999.90;999.90;;;;;;;;;;6227221;23;20043;-88
2023/10/05 08:03:53;;;;;;;1999.90;999.90;;;;;;;;;;6232069;23;20087;-88
2023/10/05 08:06:22;;;;;;;1999.90;999.90;;;;;;;;;;6239905;23;20032;-90
2023/10/05 08:08:50;;;;;;;1999.90;999.90;;;;;;;;;;6207214;23;20016;-89
2023/10/05 08:11:17;;;;;;;1999.90;999.90;;;;;;;;;;6220464;23;20024;-89
2023/10/05 08:13:43;;;;;;;1999.90;999.90;;;;;;;;;;6220666;23;20436;-88
2023/10/05 08:16:10;;;;;;;1999.90;999.90;;;;;;;;;;6213136;23;20020;-88
2023/10/05 08:18:37;;;;;;;1999.90;999.90;;;;;;;;;;6211679;23;20028;-92
2023/10/05 08:21:05;;;;;;;1999.90;999.90;;;;;;;;;;6212205;23;20027;-88
2023/10/05 08:23:32;;;;;;;1999.90;999.90;;;;;;;;;;6212210;23;20020;-89
2023/10/05 08:25:59;;;;;;;1999.90;999.90;;;;;;;;;;6212020;23;20027;-92
2023/10/05 08:28:26;;;;;;;1999.90;999.90;;;;;;;;;;6212042;23;20023;-90
2023/10/05 08:31:04;;;;;;;1999.90;999.90;;;;;;;;;;6212281;23;20027;-90
2023/10/05 08:33:33;;;;;;;1999.90;999.90;;;;;;;;;;6212314;23;20028;-89
2023/10/05 08:36:00;;;;;;;1999.90;999.90;;;;;;;;;;6212920;23;20027;-90
2023/10/05 08:38:27;;;;;;;1999.90;999.90;;;;;;;;;;6213346;23;20023;-89
2023/10/05 08:40:54;;;;;;;1999.90;999.90;;;;;;;;;;6212672;23;20027;-88
2023/10/05 08:43:22;;;;;;;1999.90;999.90;;;;;;;;;;6213367;23;20076;-90
2023/10/05 08:45:51;;;;;;;1999.90;999.90;;;;;;;;;;6214764;23;20107;-89
2023/10/05 08:48:22;;;;;;;1999.90;999.90;;;;;;;;;;6213782;23;20021;-91
2023/10/05 08:50:52;;;;;;;1999.90;999.90;;;;;;;;;;6212959;23;20032;-90
2023/10/05 08:53:21;;;;;;;1999.90;999.90;;;;;;;;;;6214403;23;20025;-89
2023/10/05 08:55:51;;;;;;;1999.90;999.90;;;;;;;;;;6212732;23;20044;-93
2023/10/05 08:58:20;;;;;;;1999.90;999.90;;;;;;;;;;6212838;23;20052;-89
2023/10/05 09:00:49;;;;;;;1999.90;999.90;;;;;;;;;;6211093;23;20026;-88
2023/10/05 09:03:35;;;;;;;1999.90;999.90;;;;;;;;;;6209606;23;20018;-89
2023/10/05 09:08:53;;;;;;;1999.90;999.90;;;;;;;;;;6207699;23;20012;-89
2023/10/05 09:11:22;;;;;;;1999.90;999.90;;;;;;;;;;6212232;23;20466;-88
2023/10/05 09:13:49;;;;;;;1999.90;999.90;;;;;;;;;;6212568;23;20074;-88
2023/10/05 09:16:30;;;;;;;1999.90;999.90;;;;;;;;;;6212331;23;20024;-90
2023/10/05 09:19:00;;;;;;;1999.90;999.90;;;;;;;;;;6212283;23;20332;-89
2023/10/05 09:21:44;;;;;;;1999.90;999.90;;;;;;;;;;6212345;23;20051;-90
2023/10/05 09:24:20;;;;;;;1999.90;999.90;;;;;;;;;;6212236;23;20021;-90
2023/10/05 09:26:50;;;;;;;1999.90;999.90;;;;;;;;;;6212670;23;20028;-90
2023/10/05 09:29:21;;;;;;;1999.90;999.90;;;;;;;;;;6212526;23;20032;-93
2023/10/05 09:31:53;;;;;;;1999.90;999.90;;;;;;;;;;6213559;23;20024;-90
2023/10/05 09:34:37;;;;;;;1999.90;999.90;;;;;;;;;;6213514;23;20099;-90
2023/10/05 09:37:05;;;;;;;1999.90;999.90;;;;;;;;;;6212440;23;20024;-90
2023/10/05 09:39:34;;;;;;;1999.90;999.90;;;;;;;;;;6212454;23;20047;-91
2023/10/05 09:42:01;;;;;;;1999.90;999.90;;;;;;;;;;6211964;23;20027;-92
2023/10/05 09:44:31;;;;;;;1999.90;999.90;;;;;;;;;;6212301;23;20092;-90
2023/10/05 09:46:59;;;;;;;1999.90;999.90;;;;;;;;;;6215595;23;20335;-90
2023/10/05 09:49:27;;;;;;;1999.90;999.90;;;;;;;;;;6211658;23;20021;-89
2023/10/05 09:51:54;;;;;;;1999.90;999.90;;;;;;;;;;6212329;23;20749;-87
2023/10/05 09:54:22;;;;;;;1999.90;999.90;;;;;;;;;;6214266;23;20048;-90
2023/10/05 09:56:49;;;;;;;1999.90;999.90;;;;;;;;;;6216506;23;20284;-92
2023/10/05 09:59:17;;;;;;;1999.90;999.90;;;;;;;;;;6216789;23;20095;-91
2023/10/05 10:01:47;;;;;;;1999.90;999.90;;;;;;;;;;6215556;23;20024;-92
2023/10/05 10:04:34;;;;;;;1999.90;999.90;;;;;;;;;;6214685;23;20090;-92
2023/10/05 10:07:05;;;;;;;1999.90;999.90;;;;;;;;;;6216105;23;20031;-91
2023/10/05 10:09:32;;;;;;;1999.90;999.90;;;;;;;;;;6217854;23;20020;-92
2023/10/05 10:11:59;;;;;;;1999.90;999.90;;;;;;;;;;6216984;23;20056;-89
2023/10/05 10:14:26;;;;;;;1999.90;999.90;;;;;;;;;;6216664;23;20025;-90
2023/10/05 10:17:02;;;;;;;1999.90;999.90;;;;;;;;;;6216249;23;20103;-90
2023/10/05 10:19:45;;;;;;;1999.90;999.90;;;;;;;;;;6214421;23;20024;-91
2023/10/05 10:22:12;;;;;;;1999.90;999.90;;;;;;;;;;6218027;23;20074;-91
2023/10/05 10:24:40;;;;;;;1999.90;999.90;;;;;;;;;;6216494;23;20017;-87
2023/10/05 10:27:14;;;;;;;1999.90;999.90;;;;;;;;;;6219399;23;20036;-92
2023/10/05 10:29:43;;;;;;;1999.90;999.90;;;;;;;;;;6219583;23;20043;-89
2023/10/05 10:32:18;;;;;;;1999.90;999.90;;;;;;;;;;6214486;23;20478;-91
2023/10/05 10:34:50;;;;;;;1999.90;999.90;;;;;;;;;;6215771;23;20064;-91
2023/10/05 10:37:36;;;;;;;1999.90;999.90;;;;;;;;;;6214690;23;20025;-91
2023/10/05 10:40:11;;;;;;;1999.90;999.90;;;;;;;;;;6214724;23;20543;-90
2023/10/05 10:43:06;;;;;;;1999.90;999.90;;;;;;;;;;6214331;23;20024;-89
2023/10/05 10:45:33;;;;;;;1999.90;999.90;;;;;;;;;;6214545;23;20384;-91
2023/10/05 10:48:04;;;;;;;1999.90;999.90;;;;;;;;;;6214375;23;20079;-91
2023/10/05 10:50:37;;;;;;;1999.90;999.90;;;;;;;;;;6213622;23;20025;-91
2023/10/05 10:53:06;;;;;;;1999.90;999.90;;;;;;;;;;6214155;23;20025;-90
2023/10/05 10:55:34;;;;;;;1999.90;999.90;;;;;;;;;;6213972;23;20052;-90
2023/10/05 10:58:04;;;;;;;1999.90;999.90;;;;;;;;;;6213752;23;20013;-92
2023/10/05 11:16:33;;;;;;;1999.90;999.90;;;;;;;;;;6222591;23;20024;-87
2023/10/05 11:19:03;;;;;;;1999.90;999.90;;;;;;;;;;6224592;23;20082;-89
2023/10/05 11:21:43;;;;;;;1999.90;999.90;;;;;;;;;;6224575;23;20017;-89
2023/10/05 11:24:11;;;;;;;1999.90;999.90;;;;;;;;;;6219542;23;20521;-87
2023/10/05 11:27:07;;;;;;;1999.90;999.90;;;;;;;;;;6220017;23;20104;-87
2023/10/05 11:29:43;;;;;;;1999.90;999.90;;;;;;;;;;6216989;23;20017;-86
2023/10/05 11:32:12;;;;;;;1999.90;999.90;;;;;;;;;;6217156;23;20020;-87
2023/10/05 11:34:56;;;;;;;1999.90;999.90;;;;;;;;;;6217739;23;20071;-86
2023/10/05 11:37:27;;;;;;;1999.90;999.90;;;;;;;;;;6217274;23;20021;-88
2023/10/05 11:39:58;;;;;;;1999.90;999.90;;;;;;;;;;6217692;23;20024;-86
2023/10/05 11:42:25;;;;;;;1999.90;999.90;;;;;;;;;;6220796;22;20020;-87
2023/10/05 11:44:55;;;;;;;1999.90;999.90;;;;;;;;;;6216817;23;20063;-87
2023/10/05 11:47:32;;;;;;;1999.90;999.90;;;;;;;;;;6216897;23;20020;-86
2023/10/05 11:50:03;;;;;;;1999.90;999.90;;;;;;;;;;6216377;23;20362;-87
2023/10/05 11:52:31;;;;;;;1999.90;999.90;;;;;;;;;;6218644;23;20347;-89
2023/10/05 11:54:58;;;;;;;1999.90;999.90;;;;;;;;;;6221302;23;20051;-87
2023/10/05 11:57:24;;;;;;;1999.90;999.90;;;;;;;;;;6214957;23;20028;-89
2023/10/05 11:59:57;;;;;;;1999.90;999.90;;;;;;;;;;6212686;23;20108;-88
2023/10/05 12:02:26;;;;;;;1999.90;999.90;;;;;;;;;;6212556;23;20029;-89
2023/10/05 12:04:52;;;;;;;1999.90;999.90;;;;;;;;;;6212369;23;20021;-89
2023/10/05 12:07:19;;;;;;;1999.90;999.90;;;;;;;;;;6213877;23;20016;-89
2023/10/05 12:09:47;;;;;;;1999.90;999.90;;;;;;;;;;6212494;23;20020;-89
2023/10/05 12:12:15;;;;;;;1999.90;999.90;;;;;;;;;;6213458;23;20024;-87
2023/10/05 12:14:42;;;;;;;1999.90;999.90;;;;;;;;;;6212357;23;20459;-88
2023/10/05 12:17:08;;;;;;;1999.90;999.90;;;;;;;;;;6212678;23;20051;-87
2023/10/05 12:19:35;;;;;;;1999.90;999.90;;;;;;;;;;6213738;23;20470;-86
2023/10/05 12:22:03;;;;;;;1999.90;999.90;;;;;;;;;;6214495;23;20343;-87
2023/10/05 12:24:31;;;;;;;1999.90;999.90;;;;;;;;;;6214936;23;20024;-87
2023/10/05 12:26:59;;;;;;;1999.90;999.90;;;;;;;;;;6216543;23;20074;-87
2023/10/05 12:29:28;;;;;;;1999.90;999.90;;;;;;;;;;6214887;23;20028;-88
2023/10/05 12:31:59;;;;;;;1999.90;999.90;;;;;;;;;;6214457;23;20132;-88
2023/10/05 12:34:27;;;;;;;1999.90;999.90;;;;;;;;;;6214118;23;20438;-87
2023/10/05 12:36:53;;;;;;;1999.90;999.90;;;;;;;;;;6214143;23;20100;-87
2023/10/05 12:39:21;;;;;;;1999.90;999.90;;;;;;;;;;6214193;23;20025;-93
2023/10/05 12:41:49;;;;;;;1999.90;999.90;;;;;;;;;;6214329;23;20132;-88
2023/10/05 12:44:23;;;;;;;1999.90;999.90;;;;;;;;;;6212486;23;20095;-88
2023/10/05 12:46:49;;;;;;;1999.90;999.90;;;;;;;;;;6212401;23;20108;-89
2023/10/05 12:49:17;;;;;;;1999.90;999.90;;;;;;;;;;6211268;23;20026;-94
2023/10/05 12:51:45;;;;;;;1999.90;999.90;;;;;;;;;;6212023;23;20028;-88
2023/10/05 12:54:18;;;;;;;1999.90;999.90;;;;;;;;;;6210931;23;20012;-88
2023/10/05 12:56:44;;;;;;;1999.90;999.90;;;;;;;;;;6210945;23;20031;-88
2023/10/05 12:59:11;;;;;;;1999.90;999.90;;;;;;;;;;6211250;23;20231;-88
2023/10/05 13:01:41;;;;;;;1999.90;999.90;;;;;;;;;;6211251;23;20017;-88
2023/10/05 13:04:08;;;;;;;1999.90;999.90;;;;;;;;;;6211599;23;20304;-88
2023/10/05 13:06:35;;;;;;;1999.90;999.90;;;;;;;;;;6211651;23;20433;-88
2023/10/05 13:09:04;;;;;;;1999.90;999.90;;;;;;;;;;6211421;23;20024;-88
2023/10/05 13:11:31;;;;;;;1999.90;999.90;;;;;;;;;;6210942;23;20495;-86
2023/10/05 13:13:57;;;;;;;1999.90;999.90;;;;;;;;;;6211391;23;20071;-87
2023/10/05 13:16:24;;;;;;;1999.90;999.90;;;;;;;;;;6211329;23;20030;-86
2023/10/05 13:18:54;;;;;;;1999.90;999.90;;;;;;;;;;6211824;23;20103;-87
2023/10/05 13:21:22;;;;;;;1999.90;999.90;;;;;;;;;;6209458;23;20024;-89
2023/10/05 13:23:52;;;;;;;1999.90;999.90;;;;;;;;;;6210981;23;20095;-87
2023/10/05 13:26:19;;;;;;;1999.90;999.90;;;;;;;;;;6211017;23;20090;-87
2023/10/05 13:28:47;;;;;;;1999.90;999.90;;;;;;;;;;6210498;23;20444;-88
2023/10/05 13:31:13;;;;;;;1999.90;999.90;;;;;;;;;;6210649;23;20027;-87
2023/10/05 13:33:40;;;;;;;1999.90;999.90;;;;;;;;;;6210510;23;20021;-87
2023/10/05 13:36:12;;;;;;;1999.90;999.90;;;;;;;;;;6211131;23;20024;-88
2023/10/05 13:38:39;;;;;;;1999.90;999.90;;;;;;;;;;6210171;23;20340;-88
2023/10/05 13:41:14;;;;;;;1999.90;999.90;;;;;;;;;;6210361;23;20071;-89
2023/10/05 13:43:41;;;;;;;1999.90;999.90;;;;;;;;;;6211045;23;20024;-88
2023/10/05 13:46:12;;;;;;;1999.90;999.90;;;;;;;;;;6210447;23;20020;-87
2023/10/05 13:48:40;;;;;;;1999.90;999.90;;;;;;;;;;6210923;23;20023;-87
2023/10/05 13:51:11;;;;;;;1999.90;999.90;;;;;;;;;;6210925;23;20021;-88
2023/10/05 13:53:38;;;;;;;1999.90;999.90;;;;;;;;;;6211133;23;20028;-87
2023/10/05 13:56:05;;;;;;;1999.90;999.90;;;;;;;;;;6210637;23;20035;-88
2023/10/05 13:58:31;;;;;;;1999.90;999.90;;;;;;;;;;6210738;23;20020;-88
2023/10/05 14:01:01;;;;;;;1999.90;999.90;;;;;;;;;;6210205;23;20463;-88
2023/10/05 14:03:29;;;;;;;1999.90;999.90;;;;;;;;;;6210647;23;20052;-88
2023/10/05 14:06:01;;;;;;;1999.90;999.90;;;;;;;;;;6210739;23;20374;-87
2023/10/05 14:08:29;;;;;;;1999.90;999.90;;;;;;;;;;6212192;23;20055;-87
2023/10/05 14:10:59;;;;;;;1999.90;999.90;;;;;;;;;;6210524;23;20091;-88
2023/10/05 14:13:25;;;;;;;1999.90;999.90;;;;;;;;;;6210478;23;20028;-87
2023/10/05 14:15:52;;;;;;;1999.90;999.90;;;;;;;;;;6211184;23;20342;-86